createdAt,value
2018-10-03T00:00:07.873Z,5.00
2018-10-03T00:02:36.442Z,5.40
2018-10-03T00:05:05.071Z,4.47
2018-10-03T00:07:33.695Z,4.60
2018-10-03T00:10:02.206Z,4.87
2018-10-03T00:12:30.667Z,4.97
2018-10-03T00:14:59.145Z,4.90
2018-10-03T00:17:27.691Z,4.73
2018-10-03T00:19:56.207Z,4.70
2018-10-03T00:22:24.682Z,5.40
2018-10-03T00:24:53.161Z,5.00
2018-10-03T00:27:21.610Z,6.23
2018-10-03T00:29:50.114Z,4.20
2018-10-03T00:32:18.618Z,4.87
2018-10-03T00:34:47.107Z,4.73
2018-10-03T00:37:15.565Z,4.37
2018-10-03T00:39:44.203Z,4.77
2018-10-03T00:42:12.659Z,4.60
2018-10-03T00:44:41.178Z,4.90
2018-10-03T00:47:09.636Z,4.60
2018-10-03T00:49:38.107Z,4.57
2018-10-03T00:52:06.545Z,4.40
2018-10-03T00:54:35.060Z,4.40
2018-10-03T00:57:03.550Z,4.57
2018-10-03T00:59:32.070Z,4.50
2018-10-03T01:02:00.612Z,4.33
2018-10-03T01:04:29.125Z,4.77
2018-10-03T01:06:57.610Z,4.00
2018-10-03T01:09:26.121Z,4.43
2018-10-03T01:11:54.609Z,4.63
2018-10-03T01:14:23.124Z,4.43
2018-10-03T01:16:51.617Z,3.90
2018-10-03T01:19:20.341Z,4.43
2018-10-03T01:21:48.778Z,3.87
2018-10-03T01:24:17.318Z,4.00
2018-10-03T01:26:45.803Z,3.80
2018-10-03T01:29:14.333Z,4.37
2018-10-03T01:31:42.797Z,3.53
2018-10-03T01:34:11.258Z,4.37
2018-10-03T01:36:39.756Z,4.17
2018-10-03T01:39:09.452Z,4.00
2018-10-03T01:41:38.404Z,3.70
2018-10-03T01:44:06.936Z,4.03
2018-10-03T01:46:35.382Z,3.67
2018-10-03T01:49:03.878Z,3.93
2018-10-03T01:51:32.357Z,4.00
2018-10-03T01:54:00.883Z,4.03
2018-10-03T01:56:29.625Z,3.93
2018-10-03T01:58:58.104Z,3.77
2018-10-03T02:01:26.651Z,4.00
2018-10-03T02:03:55.105Z,3.83
2018-10-03T02:06:23.536Z,3.87
2018-10-03T02:08:52.022Z,4.77
2018-10-03T02:11:20.508Z,4.10
2018-10-03T02:13:49.026Z,4.40
2018-10-03T02:16:17.489Z,4.67
2018-10-03T02:18:46.052Z,4.30
2018-10-03T02:21:14.499Z,4.87
2018-10-03T02:23:43.079Z,5.07
2018-10-03T02:26:11.530Z,5.50
2018-10-03T02:28:40.014Z,4.97
2018-10-03T02:31:08.549Z,4.97
2018-10-03T02:33:37.019Z,5.70
2018-10-03T02:36:05.645Z,5.23
2018-10-03T02:38:34.170Z,5.57
2018-10-03T02:41:02.698Z,5.87
2018-10-03T02:43:31.699Z,5.93
2018-10-03T02:46:00.170Z,6.27
2018-10-03T02:48:28.626Z,6.77
2018-10-03T02:50:57.151Z,6.20
2018-10-03T02:53:25.627Z,6.13
2018-10-03T02:55:54.296Z,7.03
2018-10-03T02:58:22.747Z,6.10
2018-10-03T03:00:51.354Z,6.30
2018-10-03T03:03:19.791Z,6.30
2018-10-03T03:05:48.278Z,6.33
2018-10-03T03:08:16.748Z,7.30
2018-10-03T03:10:45.256Z,7.67
2018-10-03T03:13:13.733Z,5.80
2018-10-03T03:15:42.309Z,6.33
2018-10-03T03:18:10.879Z,5.97
2018-10-03T03:20:39.371Z,6.17
2018-10-03T03:23:07.813Z,6.40
2018-10-03T03:25:36.323Z,5.70
2018-10-03T03:28:04.848Z,6.03
2018-10-03T03:30:33.453Z,6.07
2018-10-03T03:33:01.889Z,6.00
2018-10-03T03:35:30.388Z,6.10
2018-10-03T03:37:58.851Z,4.97
2018-10-03T03:40:27.348Z,5.10
2018-10-03T03:42:55.791Z,4.97
2018-10-03T03:45:24.318Z,5.23
2018-10-03T03:47:52.790Z,4.87
2018-10-03T03:50:21.287Z,4.87
2018-10-03T03:52:49.819Z,5.00
2018-10-03T03:55:18.282Z,4.80
2018-10-03T03:57:46.807Z,5.30
2018-10-03T04:00:15.292Z,5.43
2018-10-03T04:02:43.754Z,5.07
2018-10-03T04:05:12.240Z,5.20
2018-10-03T04:07:40.899Z,4.97
2018-10-03T04:10:09.335Z,5.13
2018-10-03T04:12:37.800Z,5.30
2018-10-03T04:15:06.338Z,4.47
2018-10-03T04:17:34.820Z,5.00
2018-10-03T04:20:03.326Z,5.23
2018-10-03T04:22:31.783Z,5.23
2018-10-03T04:25:00.246Z,6.07
2018-10-03T04:27:28.697Z,4.67
2018-10-03T04:29:57.245Z,4.70
2018-10-03T04:32:25.723Z,4.77
2018-10-03T04:34:54.210Z,6.00
2018-10-03T04:37:22.631Z,5.53
2018-10-03T04:39:51.110Z,5.57
2018-10-03T04:42:19.620Z,6.53
2018-10-03T04:44:48.111Z,7.37
2018-10-03T04:47:16.577Z,7.20
2018-10-03T04:49:45.045Z,6.77
2018-10-03T04:52:13.477Z,5.90
2018-10-03T04:54:41.949Z,6.93
2018-10-03T04:57:10.461Z,6.27
2018-10-03T04:59:39.121Z,6.50
2018-10-03T05:02:07.591Z,6.53
2018-10-03T05:04:36.074Z,6.70
2018-10-03T05:07:04.544Z,6.70
2018-10-03T05:09:33.038Z,7.07
2018-10-03T05:12:01.541Z,6.20
2018-10-03T05:14:30.016Z,6.40
2018-10-03T05:16:58.759Z,7.40
2018-10-03T05:19:27.260Z,6.87
2018-10-03T05:21:55.702Z,6.20
2018-10-03T05:24:24.158Z,6.17
2018-10-03T05:26:52.814Z,6.27
2018-10-03T05:29:21.643Z,6.13
2018-10-03T05:31:50.146Z,6.33
2018-10-03T05:34:18.761Z,6.10
2018-10-03T05:36:47.244Z,7.20
2018-10-03T05:39:15.765Z,7.03
2018-10-03T05:41:44.251Z,7.00
2018-10-03T05:44:12.858Z,6.20
2018-10-03T05:46:41.819Z,6.23
2018-10-03T05:49:16.672Z,6.73
2018-10-03T05:51:45.142Z,7.47
2018-10-03T05:54:13.677Z,6.77
2018-10-03T05:56:42.219Z,6.90
2018-10-03T05:59:10.685Z,7.00
2018-10-03T06:01:39.160Z,7.33
2018-10-03T06:04:07.643Z,6.50
2018-10-03T06:06:36.091Z,6.80
2018-10-03T06:09:07.315Z,5.90
2018-10-03T06:11:35.761Z,6.67
2018-10-03T06:14:04.242Z,6.70
2018-10-03T06:16:32.710Z,5.87
2018-10-03T06:19:01.187Z,5.80
2018-10-03T06:21:29.639Z,6.70
2018-10-03T06:23:58.160Z,6.27
2018-10-03T06:26:26.784Z,6.10
2018-10-03T06:28:55.364Z,5.90
2018-10-03T06:31:23.829Z,5.40
2018-10-03T06:33:52.311Z,6.27
2018-10-03T06:36:20.758Z,5.63
2018-10-03T06:38:49.229Z,5.37
2018-10-03T06:41:17.687Z,5.80
2018-10-03T06:43:46.161Z,5.87
2018-10-03T06:46:14.618Z,5.00
2018-10-03T06:48:43.084Z,5.40
2018-10-03T06:51:11.546Z,6.03
2018-10-03T06:53:40.068Z,5.60
2018-10-03T06:56:08.603Z,6.53
2018-10-03T06:58:37.097Z,5.73
2018-10-03T07:01:05.583Z,5.60
2018-10-03T07:03:34.064Z,5.77
2018-10-03T07:06:02.566Z,7.70
2018-10-03T07:08:31.098Z,6.33
2018-10-03T07:10:59.546Z,6.07
2018-10-03T07:13:28.026Z,6.73
2018-10-03T07:15:56.466Z,7.97
2018-10-03T07:18:25.071Z,6.67
2018-10-03T07:20:53.559Z,5.83
2018-10-03T07:23:22.070Z,6.03
2018-10-03T07:25:50.534Z,6.77
2018-10-03T07:28:19.146Z,7.23
2018-10-03T07:30:47.589Z,7.17
2018-10-03T07:33:16.043Z,7.10
2018-10-03T07:35:44.503Z,6.77
2018-10-03T07:38:13.000Z,7.60
2018-10-03T07:40:41.525Z,8.10
2018-10-03T07:43:10.130Z,8.17
2018-10-03T07:45:38.587Z,9.00
2018-10-03T07:48:07.191Z,8.80
2018-10-03T07:50:35.577Z,9.00
2018-10-03T07:53:04.202Z,7.80
2018-10-03T07:55:32.675Z,7.63
2018-10-03T07:58:01.146Z,9.83
2018-10-03T08:00:30.775Z,8.37
2018-10-03T08:02:59.835Z,10.27
2018-10-03T08:05:29.071Z,8.53
2018-10-03T08:07:58.722Z,7.70
2018-10-03T08:10:27.201Z,7.97
2018-10-03T08:12:56.214Z,7.77
2018-10-03T08:15:24.695Z,8.50
2018-10-03T08:17:53.126Z,7.80
2018-10-03T08:20:21.783Z,7.07
2018-10-03T08:22:50.240Z,7.17
2018-10-03T08:25:18.769Z,7.90
2018-10-03T08:27:47.357Z,6.97
2018-10-03T08:30:15.815Z,7.80
2018-10-03T08:32:44.547Z,7.30
2018-10-03T08:35:12.853Z,6.60
2018-10-03T08:37:41.337Z,7.00
2018-10-03T08:40:09.541Z,6.87
2018-10-03T08:42:38.070Z,6.57
2018-10-03T08:45:06.702Z,6.73
2018-10-03T08:47:35.201Z,6.50
2018-10-03T08:50:03.695Z,6.53
2018-10-03T08:52:32.184Z,6.53
2018-10-03T08:55:00.635Z,6.57
2018-10-03T08:57:29.106Z,6.50
2018-10-03T08:59:57.545Z,7.17
2018-10-03T09:02:26.009Z,6.73
2018-10-03T09:04:54.691Z,6.67
2018-10-03T09:07:23.192Z,6.73
2018-10-03T09:09:51.693Z,5.97
2018-10-03T09:12:20.169Z,6.30
2018-10-03T09:14:48.630Z,5.50
2018-10-03T09:17:17.135Z,6.23
2018-10-03T09:19:45.592Z,6.00
2018-10-03T09:22:14.071Z,5.70
2018-10-03T09:24:42.521Z,5.70
2018-10-03T09:27:11.025Z,5.40
2018-10-03T09:29:39.458Z,5.53
2018-10-03T09:32:07.978Z,5.63
2018-10-03T09:34:36.411Z,5.20
2018-10-03T09:37:04.889Z,5.60
2018-10-03T09:39:33.416Z,4.30
2018-10-03T09:42:01.858Z,4.70
2018-10-03T09:44:30.344Z,4.63
2018-10-03T09:46:59.211Z,4.70
2018-10-03T09:49:27.656Z,5.13
2018-10-03T09:51:56.110Z,4.73
2018-10-03T09:54:24.591Z,5.20
2018-10-03T09:56:53.085Z,5.23
2018-10-03T09:59:21.578Z,4.43
2018-10-03T10:01:50.060Z,4.40
2018-10-03T10:04:18.551Z,3.97
2018-10-03T10:06:47.034Z,4.63
2018-10-03T10:09:15.497Z,4.20
2018-10-03T10:11:44.122Z,4.30
2018-10-03T10:14:12.417Z,3.73
2018-10-03T10:16:40.942Z,4.63
2018-10-03T10:19:09.410Z,4.87
2018-10-03T10:21:37.866Z,4.33
2018-10-03T10:24:06.367Z,4.07
2018-10-03T10:26:34.828Z,4.23
2018-10-03T10:29:03.325Z,4.60
2018-10-03T10:31:31.825Z,5.00
2018-10-03T10:34:00.346Z,4.53
2018-10-03T10:36:28.818Z,4.70
2018-10-03T10:38:57.302Z,5.47
2018-10-03T10:41:25.917Z,4.87
2018-10-03T10:43:54.304Z,3.93
2018-10-03T10:46:22.810Z,4.33
2018-10-03T10:48:51.345Z,3.90
2018-10-03T10:51:19.803Z,4.57
2018-10-03T10:53:48.278Z,3.83
2018-10-03T10:56:16.743Z,4.10
2018-10-03T10:58:45.229Z,3.80
2018-10-03T11:01:13.683Z,4.30
2018-10-03T11:03:42.251Z,4.27
2018-10-03T11:06:10.766Z,4.17
2018-10-03T11:08:39.218Z,4.07
2018-10-03T11:11:07.678Z,4.13
2018-10-03T11:13:36.204Z,4.20
2018-10-03T11:16:04.646Z,6.00
2018-10-03T11:18:33.171Z,5.03
2018-10-03T11:21:01.636Z,5.10
2018-10-03T11:23:30.175Z,4.60
2018-10-03T11:25:58.683Z,6.00
2018-10-03T11:28:27.248Z,8.83
2018-10-03T11:30:55.719Z,5.43
2018-10-03T11:33:24.194Z,4.03
2018-10-03T11:35:52.640Z,4.73
2018-10-03T11:38:21.167Z,4.73
2018-10-03T11:40:49.593Z,4.33
2018-10-03T11:43:18.185Z,3.70
2018-10-03T11:45:46.620Z,4.30
2018-10-03T11:48:15.142Z,3.97
2018-10-03T11:50:43.659Z,3.80
2018-10-03T11:53:12.128Z,4.20
2018-10-03T11:55:40.599Z,4.63
2018-10-03T11:58:09.091Z,3.60
2018-10-03T12:00:37.623Z,4.00
2018-10-03T12:03:06.104Z,3.50
2018-10-03T12:05:34.578Z,3.43
2018-10-03T12:08:03.083Z,3.37
2018-10-03T12:10:31.554Z,3.47
2018-10-03T12:13:00.122Z,3.33
2018-10-03T12:15:28.572Z,3.40
2018-10-03T12:17:57.062Z,3.70
2018-10-03T12:20:25.510Z,3.47
2018-10-03T12:22:53.986Z,3.80
2018-10-03T12:25:23.266Z,3.53
2018-10-03T12:27:51.847Z,3.53
2018-10-03T12:30:20.329Z,5.07
2018-10-03T12:32:48.827Z,3.50
2018-10-03T12:35:21.503Z,3.50
2018-10-03T12:37:49.994Z,3.70
2018-10-03T12:40:18.490Z,3.27
2018-10-03T12:42:47.129Z,3.50
2018-10-03T12:45:15.717Z,3.27
2018-10-03T12:47:44.154Z,3.40
2018-10-03T12:50:12.692Z,3.80
2018-10-03T12:52:41.226Z,3.03
2018-10-03T12:55:09.703Z,4.10
2018-10-03T12:57:38.316Z,3.73
2018-10-03T13:00:06.803Z,3.33
2018-10-03T13:02:35.321Z,3.30
2018-10-03T13:05:03.860Z,3.00
2018-10-03T13:07:32.368Z,3.63
2018-10-03T13:10:00.929Z,3.40
2018-10-03T13:12:29.398Z,3.43
2018-10-03T13:14:57.859Z,3.50
2018-10-03T13:17:26.468Z,3.10
2018-10-03T13:19:54.933Z,3.20
2018-10-03T13:22:23.506Z,4.30
2018-10-03T13:24:52.287Z,2.90
2018-10-03T13:27:20.886Z,2.83
2018-10-03T13:29:49.368Z,2.43
2018-10-03T13:32:17.876Z,2.30
2018-10-03T13:34:46.353Z,2.50
2018-10-03T13:37:14.850Z,2.70
2018-10-03T13:39:43.354Z,2.87
2018-10-03T13:42:11.869Z,3.60
2018-10-03T13:44:40.337Z,3.03
2018-10-03T13:47:08.845Z,2.87
2018-10-03T13:49:37.297Z,3.40
2018-10-03T13:52:05.856Z,3.20
2018-10-03T13:54:34.350Z,2.77
2018-10-03T13:57:03.221Z,2.67
2018-10-03T13:59:31.735Z,3.50
2018-10-03T14:02:00.235Z,3.00
2018-10-03T14:04:28.679Z,3.07
2018-10-03T14:06:57.224Z,3.07
2018-10-03T14:09:25.698Z,3.20
2018-10-03T14:11:54.187Z,2.90
2018-10-03T14:14:22.686Z,2.80
2018-10-03T14:16:51.191Z,3.17
2018-10-03T14:19:19.659Z,3.30
2018-10-03T14:21:48.158Z,2.63
2018-10-03T14:24:16.626Z,2.73
2018-10-03T14:26:45.079Z,3.10
2018-10-03T14:29:13.639Z,2.73
2018-10-03T14:31:42.410Z,3.50
2018-10-03T14:34:10.901Z,2.90
2018-10-03T14:36:39.417Z,2.80
2018-10-03T14:39:08.785Z,3.00
2018-10-03T14:41:37.243Z,3.17
2018-10-03T14:44:05.770Z,3.50
2018-10-03T14:46:34.238Z,3.03
2018-10-03T14:49:02.739Z,3.17
2018-10-03T14:51:31.198Z,3.00
2018-10-03T14:53:59.670Z,2.97
2018-10-03T14:56:28.118Z,3.20
2018-10-03T14:58:56.599Z,3.00
2018-10-03T15:01:25.092Z,2.77
2018-10-03T15:03:53.671Z,2.87
2018-10-03T15:06:22.123Z,2.90
2018-10-03T15:08:50.613Z,2.57
2018-10-03T15:11:19.081Z,2.70
2018-10-03T15:13:47.534Z,3.07
2018-10-03T15:16:15.998Z,2.90
2018-10-03T15:18:44.471Z,2.73
2018-10-03T15:21:12.914Z,3.10
2018-10-03T15:23:41.434Z,3.30
2018-10-03T15:26:09.858Z,2.90
2018-10-03T15:28:38.380Z,2.97
2018-10-03T15:31:06.926Z,4.20
2018-10-03T15:33:35.390Z,2.77
2018-10-03T15:36:03.841Z,3.00
2018-10-03T15:38:32.335Z,3.37
2018-10-03T15:41:00.776Z,3.07
2018-10-03T15:43:29.229Z,2.70
2018-10-03T15:45:57.691Z,3.00
2018-10-03T15:48:26.184Z,3.10
2018-10-03T15:50:54.646Z,3.20
2018-10-03T15:53:23.159Z,2.93
2018-10-03T15:55:51.631Z,3.40
2018-10-03T15:58:20.157Z,3.27
2018-10-03T16:00:48.632Z,2.97
2018-10-03T16:03:17.396Z,2.93
2018-10-03T16:05:45.879Z,3.00
2018-10-03T16:08:14.410Z,3.50
2018-10-03T16:10:42.883Z,3.23
2018-10-03T16:13:11.527Z,3.00
2018-10-03T16:15:39.958Z,4.27
2018-10-03T16:18:08.441Z,3.20
2018-10-03T16:20:37.002Z,3.60
2018-10-03T16:23:05.595Z,3.30
2018-10-03T16:25:34.035Z,3.30
2018-10-03T16:28:02.613Z,3.23
2018-10-03T16:30:31.094Z,3.00
2018-10-03T16:32:59.553Z,3.57
2018-10-03T16:35:27.989Z,4.00
2018-10-03T16:37:56.458Z,3.93
2018-10-03T16:40:24.966Z,3.70
2018-10-03T16:42:53.440Z,3.60
2018-10-03T16:45:21.886Z,3.50
2018-10-03T16:47:50.397Z,3.50
2018-10-03T16:50:18.838Z,3.60
2018-10-03T16:52:47.311Z,3.27
2018-10-03T16:55:15.746Z,3.63
2018-10-03T16:57:44.600Z,3.37
2018-10-03T17:00:13.738Z,3.50
2018-10-03T17:02:42.855Z,3.20
2018-10-03T17:05:11.339Z,2.93
2018-10-03T17:07:39.837Z,3.53
2018-10-03T17:10:08.348Z,3.20
2018-10-03T17:12:36.777Z,3.50
2018-10-03T17:15:05.305Z,3.53
2018-10-03T17:17:34.269Z,3.03
2018-10-03T17:20:02.873Z,3.43
2018-10-03T17:22:31.342Z,3.33
2018-10-03T17:24:59.821Z,3.13
2018-10-03T17:27:28.349Z,3.77
2018-10-03T17:29:56.763Z,3.63
2018-10-03T17:32:25.226Z,3.63
2018-10-03T17:34:53.650Z,3.63
2018-10-03T17:37:22.128Z,4.17
2018-10-03T17:39:50.568Z,4.03
2018-10-03T17:42:19.042Z,4.10
2018-10-03T17:44:47.492Z,4.03
2018-10-03T17:47:15.927Z,4.67
2018-10-03T17:49:44.397Z,4.03
2018-10-03T17:52:12.849Z,4.60
2018-10-03T17:54:41.327Z,4.60
2018-10-03T17:57:09.945Z,4.50
2018-10-03T17:59:38.394Z,4.27
2018-10-03T18:02:09.107Z,4.13
2018-10-03T18:04:37.639Z,4.00
2018-10-03T18:07:06.246Z,4.03
2018-10-03T18:09:34.692Z,3.57
2018-10-03T18:12:03.170Z,4.03
2018-10-03T18:14:31.599Z,3.50
2018-10-03T18:17:00.123Z,4.23
2018-10-03T18:19:28.587Z,4.50
2018-10-03T18:21:57.272Z,5.27
2018-10-03T18:24:25.671Z,6.20
2018-10-03T18:26:54.155Z,6.10
2018-10-03T18:29:22.651Z,6.53
2018-10-03T18:31:51.119Z,7.53
2018-10-03T18:34:19.550Z,8.17
2018-10-03T18:36:48.030Z,8.97
2018-10-03T18:39:16.589Z,9.57
2018-10-03T18:41:45.059Z,8.50
2018-10-03T18:44:13.494Z,7.30
2018-10-03T18:46:41.956Z,7.43
2018-10-03T18:49:10.383Z,7.07
2018-10-03T18:51:38.882Z,7.33
2018-10-03T18:54:07.367Z,7.20
2018-10-03T18:56:35.829Z,6.70
2018-10-03T18:59:04.320Z,6.53
2018-10-03T19:01:32.888Z,6.77
2018-10-03T19:04:01.369Z,6.10
2018-10-03T19:06:29.848Z,7.47
2018-10-03T19:08:58.269Z,8.07
2018-10-03T19:11:26.741Z,7.47
2018-10-03T19:13:55.195Z,6.93
2018-10-03T19:16:23.770Z,6.57
2018-10-03T19:18:52.198Z,8.87
2018-10-03T19:21:20.676Z,7.80
2018-10-03T19:23:49.122Z,7.60
2018-10-03T19:26:17.653Z,6.83
2018-10-03T19:28:46.100Z,7.17
2018-10-03T19:31:14.594Z,7.47
2018-10-03T19:33:43.037Z,7.03
2018-10-03T19:36:11.608Z,6.87
2018-10-03T19:38:40.088Z,7.50
2018-10-03T19:41:08.572Z,7.13
2018-10-03T19:43:37.035Z,7.00
2018-10-03T19:46:05.495Z,6.17
2018-10-03T19:48:34.082Z,6.87
2018-10-03T19:51:02.416Z,6.13
2018-10-03T19:53:33.016Z,6.60
2018-10-03T19:56:02.521Z,6.00
2018-10-03T19:58:31.104Z,6.47
2018-10-03T20:00:59.555Z,6.30
2018-10-03T20:03:28.054Z,5.80
2018-10-03T20:05:56.514Z,6.57
2018-10-03T20:08:25.026Z,5.53
2018-10-03T20:10:53.465Z,5.50
2018-10-03T20:13:22.400Z,5.80
2018-10-03T20:15:51.374Z,5.10
2018-10-03T20:18:20.265Z,5.53
2018-10-03T20:20:48.738Z,4.27
2018-10-03T20:23:17.182Z,4.27
2018-10-03T20:25:45.621Z,4.93
2018-10-03T20:28:14.116Z,4.47
2018-10-03T20:30:42.551Z,4.50
2018-10-03T20:33:11.057Z,4.63
2018-10-03T20:35:39.570Z,4.60
2018-10-03T20:38:08.036Z,4.57
2018-10-03T20:40:36.652Z,4.47
2018-10-03T20:43:05.152Z,5.30
2018-10-03T20:45:33.591Z,5.33
2018-10-03T20:48:02.071Z,4.87
2018-10-03T20:50:30.534Z,6.07
2018-10-03T20:52:59.047Z,7.23
2018-10-03T20:55:27.469Z,6.37
2018-10-03T20:57:55.882Z,6.70
2018-10-03T21:00:24.416Z,6.70
2018-10-03T21:02:52.819Z,8.43
2018-10-03T21:05:21.310Z,6.70
2018-10-03T21:07:49.737Z,6.67
2018-10-03T21:10:18.195Z,6.30
2018-10-03T21:12:46.678Z,6.43
2018-10-03T21:15:15.136Z,6.77
2018-10-03T21:17:43.597Z,6.60
2018-10-03T21:20:12.058Z,6.00
2018-10-03T21:22:40.485Z,6.87
2018-10-03T21:25:08.992Z,6.27
2018-10-03T21:27:37.516Z,7.03
2018-10-03T21:30:06.406Z,6.80
2018-10-03T21:32:35.120Z,6.53
2018-10-03T21:35:03.592Z,6.13
2018-10-03T21:37:32.053Z,6.13
2018-10-03T21:40:00.510Z,5.40
2018-10-03T21:42:28.943Z,5.33
2018-10-03T21:44:57.402Z,6.33
2018-10-03T21:47:25.875Z,6.17
2018-10-03T21:49:54.380Z,5.20
2018-10-03T21:52:22.796Z,6.37
2018-10-03T21:54:51.281Z,6.50
2018-10-03T21:57:19.756Z,6.30
2018-10-03T21:59:48.224Z,5.87
2018-10-03T22:02:16.674Z,6.37
2018-10-03T22:04:45.147Z,5.20
2018-10-03T22:07:13.576Z,5.60
2018-10-03T22:09:42.161Z,6.20
2018-10-03T22:12:10.773Z,6.30
2018-10-03T22:14:39.247Z,5.60
2018-10-03T22:17:12.830Z,5.70
2018-10-03T22:19:41.334Z,5.73
2018-10-03T22:22:09.820Z,7.10
2018-10-03T22:24:38.323Z,9.53
2018-10-03T22:27:07.150Z,7.97
2018-10-03T22:29:35.645Z,6.20
2018-10-03T22:32:04.126Z,5.57
2018-10-03T22:34:32.624Z,5.30
2018-10-03T22:37:01.077Z,5.80
2018-10-03T22:39:29.531Z,5.37
2018-10-03T22:41:57.974Z,6.10
2018-10-03T22:44:26.457Z,4.90
2018-10-03T22:46:54.902Z,6.03
2018-10-03T22:49:23.386Z,5.10
2018-10-03T22:51:51.822Z,5.67
2018-10-03T22:54:20.313Z,5.40
2018-10-03T22:56:48.750Z,4.87
2018-10-03T22:59:17.216Z,4.70
2018-10-03T23:01:45.658Z,5.13
2018-10-03T23:04:14.126Z,4.77
2018-10-03T23:06:42.589Z,5.40
2018-10-03T23:09:11.141Z,5.40
2018-10-03T23:11:39.587Z,5.37
2018-10-03T23:14:08.088Z,5.70
2018-10-03T23:16:36.581Z,6.07
2018-10-03T23:19:05.470Z,5.70
2018-10-03T23:21:33.914Z,5.40
2018-10-03T23:24:02.380Z,5.73
2018-10-03T23:26:30.837Z,5.83
2018-10-03T23:28:59.378Z,4.80
2018-10-03T23:31:27.822Z,5.63
2018-10-03T23:33:56.258Z,5.40
2018-10-03T23:36:24.743Z,5.47
2018-10-03T23:38:53.187Z,5.40
2018-10-03T23:41:21.651Z,5.03
2018-10-03T23:43:50.069Z,5.33
2018-10-03T23:46:18.547Z,6.20
2018-10-03T23:48:47.012Z,6.43
2018-10-03T23:51:15.439Z,5.93
2018-10-03T23:53:43.915Z,6.10
2018-10-03T23:56:12.383Z,5.73
2018-10-03T23:58:40.853Z,5.47
